Time;durP1;ratioP1;P1;durP2;ratioP2;P2;SDS_P1;SDS_P2;PMS_P1;PMS_P2;Temp;Humidity;BMP_temperature;BMP_pressure;BME280_temperature;BME280_humidity;BME280_pressure;Samples;Min_cycle;Max_cycle;Signal;HPM_P1;HPM_P2
2022/10/07 00:00:57;;;;;;;7.77;3.13;;;11.50;1.00;;;;;;5021025;28;20311;-53
2022/10/07 00:03:26;;;;;;;10.20;3.13;;;11.40;1.00;;;;;;5015064;28;20199;-54
2022/10/07 00:06:04;;;;;;;7.13;3.40;;;11.40;1.00;;;;;;5020919;28;20258;-51
2022/10/07 00:08:31;;;;;;;7.50;3.50;;;11.40;1.00;;;;;;5023530;28;20652;-52
2022/10/07 00:11:06;;;;;;;7.73;3.10;;;11.40;99.90;;;;;;5016804;28;20203;-56
2022/10/07 00:13:35;;;;;;;6.17;3.47;;;11.40;1.00;;;;;;5017411;28;20643;-53
2022/10/07 00:16:07;;;;;;;4.43;3.33;;;11.40;1.00;;;;;;5019269;28;20252;-54
2022/10/07 00:18:35;;;;;;;11.03;3.30;;;11.30;1.00;;;;;;5020922;28;20243;-54
2022/10/07 00:21:08;;;;;;;9.93;3.20;;;11.30;1.00;;;;;;5017076;28;20205;-54
2022/10/07 00:23:35;;;;;;;12.53;3.20;;;11.30;1.00;;;;;;5014748;28;20638;-55
2022/10/07 00:26:04;;;;;;;9.83;3.53;;;11.30;1.00;;;;;;5017595;28;20208;-54
2022/10/07 00:28:32;;;;;;;8.50;3.10;;;11.30;1.00;;;;;;5019168;28;20230;-54
2022/10/07 00:31:04;;;;;;;8.53;3.57;;;11.20;1.00;;;;;;5023649;28;20199;-54
2022/10/07 00:33:34;;;;;;;9.47;3.17;;;11.30;1.00;;;;;;5017074;28;20251;-53
2022/10/07 00:36:05;;;;;;;8.70;2.90;;;11.30;1.00;;;;;;5012113;28;20223;-53
2022/10/07 00:38:31;;;;;;;12.67;3.47;;;11.30;1.00;;;;;;5016752;28;20207;-53
2022/10/07 00:40:58;;;;;;;9.43;3.50;;;11.20;1.00;;;;;;5014174;28;20224;-53
2022/10/07 00:43:30;;;;;;;11.30;3.30;;;11.20;1.00;;;;;;5015552;28;20212;-54
2022/10/07 00:46:04;;;;;;;10.73;3.23;;;11.20;1.00;;;;;;5016876;28;20322;-55
2022/10/07 00:48:32;;;;;;;5.20;3.00;;;11.30;1.00;;;;;;5021976;28;20222;-53
2022/10/07 00:51:00;;;;;;;10.67;3.30;;;11.30;1.00;;;;;;5019910;28;20212;-54
2022/10/07 00:53:31;;;;;;;8.37;4.10;;;11.30;1.00;;;;;;5018537;28;20192;-53
2022/10/07 00:56:02;;;;;;;13.20;4.07;;;11.20;1.00;;;;;;5015067;28;20551;-54
2022/10/07 00:58:33;;;;;;;7.27;3.13;;;11.20;1.00;;;;;;5014398;28;20240;-53
2022/10/07 01:01:01;;;;;;;7.93;3.30;;;11.10;99.90;;;;;;5013341;28;20856;-54
2022/10/07 01:03:28;;;;;;;11.47;3.00;;;11.10;1.00;;;;;;5020186;28;20598;-55
2022/10/07 01:05:55;;;;;;;10.87;4.03;;;11.10;1.00;;;;;;5015106;28;20193;-54
2022/10/07 01:08:23;;;;;;;11.77;3.30;;;11.10;1.00;;;;;;5021949;28;20209;-55
2022/10/07 01:11:18;;;;;;;8.90;3.10;;;11.10;1.00;;;;;;5024177;28;20204;-55
2022/10/07 01:14:02;;;;;;;12.73;3.53;;;11.00;1.00;;;;;;5017886;28;20288;-53
2022/10/07 01:16:46;;;;;;;9.00;3.20;;;11.00;49.60;;;;;;5022263;28;20215;-54
2022/10/07 01:19:32;;;;;;;5.70;2.87;;;11.00;99.90;;;;;;5029572;28;20230;-54
2022/10/07 01:22:15;;;;;;;9.00;3.13;;;11.00;1.00;;;;;;5027932;28;20234;-54
2022/10/07 01:24:57;;;;;;;11.57;3.03;;;10.90;99.90;;;;;;5027525;28;20232;-53
2022/10/07 01:27:26;;;;;;;4.43;3.10;;;10.90;99.90;;;;;;5021113;28;20231;-53
2022/10/07 01:30:00;;;;;;;12.93;3.20;;;11.00;99.90;;;;;;5029156;28;20543;-53
2022/10/07 01:32:39;;;;;;;7.47;3.30;;;10.90;99.90;;;;;;5030447;28;20242;-54
2022/10/07 01:35:12;;;;;;;10.67;2.60;;;10.90;1.00;;;;;;5025434;28;20562;-53
2022/10/07 01:37:45;;;;;;;9.40;3.00;;;10.90;1.00;;;;;;5029748;28;20223;-54
2022/10/07 01:40:17;;;;;;;10.37;3.53;;;10.90;1.00;;;;;;5028514;28;20710;-53
2022/10/07 01:42:45;;;;;;;13.27;3.20;;;10.90;1.00;;;;;;5017591;28;20211;-52
2022/10/07 01:45:20;;;;;;;10.07;3.10;;;11.00;1.00;;;;;;5029966;28;20211;-54
2022/10/07 01:47:47;;;;;;;9.40;3.10;;;10.90;99.90;;;;;;5019921;28;20204;-54
2022/10/07 01:50:16;;;;;;;8.27;3.40;;;10.90;99.90;;;;;;5026647;28;20675;-53
2022/10/07 01:52:50;;;;;;;10.33;3.20;;;10.90;99.90;;;;;;5019814;28;20195;-54
2022/10/07 01:55:29;;;;;;;9.53;2.97;;;10.90;1.00;;;;;;5021737;28;20199;-54
2022/10/07 01:58:30;;;;;;;6.40;2.67;;;10.90;1.00;;;;;;5018247;28;20604;-55
2022/10/07 02:01:16;;;;;;;6.97;2.90;;;10.90;1.00;;;;;;5018112;28;20223;-53
2022/10/07 02:03:53;;;;;;;4.47;2.50;;;10.90;1.00;;;;;;5026223;28;20235;-53
2022/10/07 02:06:47;;;;;;;10.47;3.20;;;10.80;1.00;;;;;;5019330;28;20943;-54
2022/10/07 02:09:30;;;;;;;14.87;3.03;;;10.90;1.00;;;;;;5026949;28;20556;-54
2022/10/07 02:12:24;;;;;;;8.03;3.17;;;10.90;1.00;;;;;;5012072;28;20694;-54
2022/10/07 02:15:02;;;;;;;9.63;3.77;;;10.80;1.00;;;;;;5022337;28;20724;-59
2022/10/07 02:17:34;;;;;;;7.77;3.13;;;10.80;1.00;;;;;;5023572;28;20628;-54
2022/10/07 02:20:03;;;;;;;9.67;3.40;;;10.80;1.00;;;;;;5028246;28;20200;-53
2022/10/07 02:22:31;;;;;;;10.43;2.90;;;10.90;1.00;;;;;;5024492;28;20197;-54
2022/10/07 02:24:58;;;;;;;6.90;2.60;;;10.70;1.00;;;;;;5027456;28;20600;-53
2022/10/07 02:27:30;;;;;;;6.70;3.17;;;10.70;99.90;;;;;;5023113;28;20562;-53
2022/10/07 02:30:19;;;;;;;7.10;2.77;;;10.80;99.90;;;;;;5028239;28;20208;-53
2022/10/07 02:32:52;;;;;;;11.30;3.20;;;10.80;99.90;;;;;;5017544;28;20204;-55
2022/10/07 02:35:39;;;;;;;4.87;2.40;;;10.70;1.00;;;;;;5015277;28;20204;-54
2022/10/07 02:38:10;;;;;;;8.67;3.50;;;10.80;1.00;;;;;;5024266;28;20200;-54
2022/10/07 02:40:44;;;;;;;9.70;3.00;;;10.70;60.80;;;;;;5012622;28;20204;-54
2022/10/07 02:43:24;;;;;;;10.53;3.20;;;10.80;1.00;;;;;;5013300;28;20687;-54
2022/10/07 02:46:01;;;;;;;9.70;2.73;;;10.70;1.00;;;;;;5019898;28;20205;-54
2022/10/07 02:48:39;;;;;;;7.97;2.70;;;10.70;1.00;;;;;;5020971;28;20754;-53
2022/10/07 02:51:10;;;;;;;6.23;2.30;;;10.60;99.90;;;;;;5019730;28;20196;-54
2022/10/07 02:53:39;;;;;;;6.37;3.00;;;10.70;99.90;;;;;;5029104;28;20595;-53
2022/10/07 02:56:06;;;;;;;8.93;2.73;;;10.60;99.90;;;;;;5023272;28;20231;-51
2022/10/07 02:58:34;;;;;;;7.20;2.80;;;10.60;1.00;;;;;;5017025;28;20243;-54
2022/10/07 03:01:03;;;;;;;10.50;2.83;;;10.50;1.00;;;;;;5020178;28;20226;-53
2022/10/07 03:03:30;;;;;;;10.70;3.47;;;10.60;1.00;;;;;;5025153;28;20689;-54
2022/10/07 03:05:58;;;;;;;6.87;3.07;;;10.50;1.00;;;;;;5025717;28;20227;-54
2022/10/07 03:08:25;;;;;;;7.30;2.67;;;10.50;99.90;;;;;;5024264;28;20206;-54
2022/10/07 03:10:51;;;;;;;6.67;2.90;;;10.60;1.00;;;;;;5026915;28;21011;-54
2022/10/07 03:13:18;;;;;;;9.37;2.87;;;10.60;1.00;;;;;;5029720;28;20299;-53
2022/10/07 03:15:45;;;;;;;6.83;2.67;;;10.60;1.00;;;;;;5026036;28;20184;-56
2022/10/07 03:18:25;;;;;;;10.37;3.00;;;10.60;99.90;;;;;;5022666;28;20233;-54
2022/10/07 03:20:54;;;;;;;8.23;2.90;;;10.80;99.90;;;;;;5022038;28;20209;-53
2022/10/07 03:23:23;;;;;;;8.73;2.93;;;10.70;99.90;;;;;;5032772;28;20199;-53
2022/10/07 03:25:52;;;;;;;7.60;3.23;;;10.70;61.10;;;;;;5032760;28;20602;-53
2022/10/07 03:28:23;;;;;;;8.87;2.73;;;10.70;99.90;;;;;;5027565;28;20224;-53
2022/10/07 03:30:51;;;;;;;6.70;2.63;;;10.50;99.90;;;;;;5020794;28;20206;-55
2022/10/07 03:33:22;;;;;;;4.63;2.23;;;10.60;99.90;;;;;;5018406;28;20570;-52
2022/10/07 03:35:49;;;;;;;7.30;2.53;;;10.70;1.00;;;;;;5032520;28;20206;-54
2022/10/07 03:38:16;;;;;;;8.27;2.70;;;10.60;99.90;;;;;;5031659;28;20205;-53
2022/10/07 03:40:44;;;;;;;8.50;3.60;;;10.60;1.00;;;;;;5024680;28;20618;-54
2022/10/07 03:43:10;;;;;;;8.03;2.50;;;10.60;1.00;;;;;;5028686;28;20561;-54
2022/10/07 03:45:49;;;;;;;8.60;2.80;;;10.60;1.00;;;;;;5027400;28;20251;-54
2022/10/07 03:48:16;;;;;;;16.03;3.30;;;10.50;10.60;;;;;;5029348;28;20202;-54
2022/10/07 03:50:51;;;;;;;6.57;2.80;;;10.60;1.00;;;;;;5020133;28;20204;-53
2022/10/07 03:53:18;;;;;;;6.10;2.33;;;10.40;1.00;;;;;;5019216;28;20204;-53
2022/10/07 03:55:45;;;;;;;9.00;3.20;;;10.40;1.00;;;;;;5018575;28;20664;-53
2022/10/07 03:58:12;;;;;;;10.07;2.90;;;10.50;1.00;;;;;;5025792;28;20246;-55
2022/10/07 04:00:40;;;;;;;9.33;2.83;;;10.50;1.00;;;;;;5030134;28;20201;-54
2022/10/07 04:03:07;;;;;;;7.27;2.70;;;10.40;1.00;;;;;;5030691;28;20206;-53
2022/10/07 04:05:35;;;;;;;9.93;2.53;;;10.50;1.00;;;;;;5026256;28;20284;-53
2022/10/07 04:08:06;;;;;;;7.57;3.20;;;10.50;1.00;;;;;;5016535;28;20203;-53
2022/10/07 04:10:33;;;;;;;10.50;3.00;;;10.60;1.00;;;;;;5023288;28;20203;-53
2022/10/07 04:13:00;;;;;;;8.33;2.87;;;10.60;1.00;;;;;;5019357;28;20215;-53
2022/10/07 04:15:27;;;;;;;10.10;2.60;;;10.50;1.00;;;;;;5028123;28;20206;-54
2022/10/07 04:17:57;;;;;;;9.53;3.17;;;10.50;99.90;;;;;;5018809;28;20215;-54
2022/10/07 04:20:25;;;;;;;9.70;3.20;;;10.40;91.20;;;;;;5019491;28;20208;-53
2022/10/07 04:22:51;;;;;;;8.10;2.53;;;10.40;1.00;;;;;;5026026;28;20204;-53
2022/10/07 04:25:33;;;;;;;7.13;3.07;;;10.40;99.90;;;;;;5022165;28;20206;-53
2022/10/07 04:28:05;;;;;;;7.13;3.13;;;10.50;99.90;;;;;;5030048;28;20196;-54
2022/10/07 04:30:38;;;;;;;9.37;2.87;;;10.40;1.00;;;;;;5021193;28;20200;-54
2022/10/07 04:33:06;;;;;;;12.17;2.80;;;10.40;1.00;;;;;;5017536;28;20205;-54
2022/10/07 04:35:37;;;;;;;11.40;3.03;;;10.50;1.00;;;;;;5019423;28;20616;-53
2022/10/07 04:38:07;;;;;;;10.33;2.53;;;10.50;1.00;;;;;;5026880;28;20216;-54
2022/10/07 04:40:38;;;;;;;5.57;2.33;;;10.40;1.00;;;;;;5029641;28;20308;-54
2022/10/07 04:43:22;;;;;;;8.17;2.70;;;10.50;1.00;;;;;;5026785;28;20200;-51
2022/10/07 04:45:54;;;;;;;11.57;3.30;;;10.30;84.90;;;;;;5027299;28;20209;-54
2022/10/07 04:48:22;;;;;;;14.00;3.27;;;10.20;1.00;;;;;;5031301;28;20222;-54
2022/10/07 04:50:51;;;;;;;7.90;3.33;;;10.30;1.00;;;;;;5021212;28;20210;-54
2022/10/07 04:53:18;;;;;;;5.87;2.60;;;10.30;1.00;;;;;;5025266;28;20207;-54
2022/10/07 04:55:53;;;;;;;8.37;3.27;;;10.20;99.90;;;;;;5017816;28;20219;-54
2022/10/07 04:58:20;;;;;;;8.70;3.00;;;10.20;99.90;;;;;;5009713;28;20237;-53
2022/10/07 05:00:49;;;;;;;11.30;2.40;;;10.20;1.00;;;;;;5017277;28;20195;-52
2022/10/07 05:03:18;;;;;;;17.00;3.10;;;10.20;1.00;;;;;;5020869;28;20202;-53
2022/10/07 05:05:48;;;;;;;11.17;3.20;;;10.20;1.00;;;;;;5019274;28;20281;-53
2022/10/07 05:08:17;;;;;;;12.23;4.10;;;10.10;99.90;;;;;;5023241;28;20206;-54
2022/10/07 05:10:44;;;;;;;6.37;2.80;;;10.00;1.00;;;;;;5029153;28;20215;-53
2022/10/07 05:13:14;;;;;;;10.87;3.40;;;10.00;99.90;;;;;;5029561;28;20675;-54
2022/10/07 05:16:10;;;;;;;9.17;3.57;;;10.10;8.60;;;;;;5012616;28;20225;-54
2022/10/07 05:18:38;;;;;;;9.27;3.70;;;10.10;1.00;;;;;;5021039;28;20229;-53
2022/10/07 05:21:06;;;;;;;12.60;3.10;;;10.20;1.00;;;;;;5018340;28;20653;-53
2022/10/07 05:23:35;;;;;;;9.37;3.30;;;10.10;99.90;;;;;;5030840;28;20201;-54
2022/10/07 05:26:06;;;;;;;13.40;3.43;;;10.10;99.90;;;;;;5016823;28;20573;-53
2022/10/07 05:28:34;;;;;;;9.30;3.13;;;10.10;1.00;;;;;;5029293;28;20252;-54
2022/10/07 05:31:07;;;;;;;9.73;3.40;;;10.10;1.00;;;;;;5041451;28;20204;-53
2022/10/07 05:33:34;;;;;;;11.07;4.23;;;10.10;1.00;;;;;;5020712;28;20209;-53
2022/10/07 05:36:01;;;;;;;11.17;3.50;;;10.00;42.20;;;;;;5023972;28;20247;-52
2022/10/07 05:38:28;;;;;;;17.97;3.93;;;10.10;1.00;;;;;;5037025;28;20306;-53
2022/10/07 05:41:00;;;;;;;11.70;3.77;;;10.10;1.00;;;;;;5025161;28;20198;-53
2022/10/07 05:43:28;;;;;;;10.23;3.37;;;10.00;99.90;;;;;;5016256;28;20319;-52
2022/10/07 05:46:00;;;;;;;14.40;3.93;;;10.00;99.90;;;;;;5021378;28;20219;-53
2022/10/07 05:48:28;;;;;;;14.23;3.37;;;9.90;99.90;;;;;;4658489;28;10000475;-53
2022/10/07 05:50:56;;;;;;;12.63;3.73;;;10.00;99.90;;;;;;5009680;28;20199;-54
2022/10/07 05:53:24;;;;;;;10.83;4.30;;;10.00;99.90;;;;;;5012830;28;20674;-53
2022/10/07 05:55:51;;;;;;;9.40;3.73;;;9.90;99.90;;;;;;5011519;28;20833;-54
2022/10/07 05:58:18;;;;;;;10.00;3.60;;;9.90;99.90;;;;;;5012934;28;20246;-54
2022/10/07 06:00:57;;;;;;;10.77;3.67;;;10.00;1.00;;;;;;5008988;28;20663;-53
2022/10/07 06:03:31;;;;;;;11.33;3.80;;;9.90;1.00;;;;;;5011182;28;20573;-54
2022/10/07 06:06:01;;;;;;;12.10;4.13;;;9.90;1.00;;;;;;5020253;28;20207;-54
2022/10/07 06:08:28;;;;;;;13.80;3.67;;;10.00;99.90;;;;;;5023932;28;20604;-55
2022/10/07 06:13:53;;;;;;;13.83;4.50;;;9.90;1.00;;;;;;5014008;28;20208;-55
2022/10/07 06:16:20;;;;;;;7.67;3.53;;;10.00;99.90;;;;;;5011866;28;20206;-55
2022/10/07 06:18:49;;;;;;;13.03;4.60;;;10.10;1.00;;;;;;5011435;28;20308;-54
2022/10/07 06:21:16;;;;;;;10.07;4.00;;;10.00;42.40;;;;;;5016902;28;20645;-54
2022/10/07 06:23:43;;;;;;;10.07;4.43;;;10.10;1.00;;;;;;5011782;28;20197;-53
2022/10/07 06:26:12;;;;;;;13.23;4.10;;;10.10;1.00;;;;;;5009167;28;20202;-55
2022/10/07 06:28:40;;;;;;;11.93;3.97;;;10.20;1.00;;;;;;5015910;28;20230;-54
2022/10/07 06:31:10;;;;;;;12.47;4.37;;;10.30;1.00;;;;;;5014181;28;20203;-53
2022/10/07 06:33:37;;;;;;;11.57;4.10;;;10.20;1.00;;;;;;5019630;28;20212;-52
2022/10/07 06:36:06;;;;;;;13.40;4.90;;;10.30;99.90;;;;;;5015228;28;20211;-53
2022/10/07 06:38:33;;;;;;;11.93;4.30;;;10.30;1.00;;;;;;5014813;28;20225;-52
2022/10/07 06:41:01;;;;;;;9.60;4.33;;;10.30;1.00;;;;;;5020192;28;20218;-54
2022/10/07 06:43:29;;;;;;;12.43;4.73;;;10.20;1.00;;;;;;5018286;28;20198;-53
2022/10/07 06:46:01;;;;;;;9.97;4.77;;;10.30;1.00;;;;;;5019042;28;20510;-53
2022/10/07 06:48:30;;;;;;;10.73;4.67;;;10.40;1.00;;;;;;5019927;28;20917;-53
2022/10/07 06:50:59;;;;;;;11.10;4.77;;;10.30;91.40;;;;;;5019900;28;20203;-54
2022/10/07 06:53:26;;;;;;;15.67;4.60;;;10.30;99.90;;;;;;5021914;28;20203;-54
2022/10/07 06:55:56;;;;;;;8.63;4.37;;;10.10;1.00;;;;;;5015935;28;20209;-54
2022/10/07 06:58:24;;;;;;;7.63;4.37;;;10.20;99.90;;;;;;5019644;28;20235;-54
2022/10/07 07:00:55;;;;;;;11.77;4.73;;;10.30;99.90;;;;;;5020010;28;20206;-54
2022/10/07 07:03:22;;;;;;;14.53;5.03;;;10.30;1.00;;;;;;5024693;28;20206;-54
2022/10/07 07:05:53;;;;;;;12.27;4.73;;;10.20;1.00;;;;;;5024427;28;20193;-55
2022/10/07 07:08:23;;;;;;;12.27;5.73;;;10.30;1.00;;;;;;5017875;28;20245;-54
2022/10/07 07:10:49;;;;;;;13.27;4.70;;;10.50;1.00;;;;;;5020123;28;20203;-54
2022/10/07 07:13:16;;;;;;;12.40;4.93;;;10.50;1.00;;;;;;5019461;28;20297;-53
2022/10/07 07:15:56;;;;;;;12.30;4.70;;;10.50;1.00;;;;;;5015040;28;20215;-54
2022/10/07 07:18:24;;;;;;;9.63;4.83;;;10.50;1.00;;;;;;5016463;28;20251;-54
2022/10/07 07:20:51;;;;;;;9.47;4.43;;;10.60;1.00;;;;;;5021387;28;20639;-53
2022/10/07 07:23:18;;;;;;;17.13;5.37;;;10.60;1.00;;;;;;5021673;28;20240;-53
2022/10/07 07:25:44;;;;;;;11.07;4.00;;;10.80;1.00;;;;;;5015530;28;20221;-53
2022/10/07 07:28:15;;;;;;;11.73;5.00;;;10.90;99.90;;;;;;5025218;28;20254;-53
2022/10/07 07:30:42;;;;;;;11.60;4.27;;;10.90;26.50;;;;;;5014177;28;20201;-53
2022/10/07 07:33:09;;;;;;;13.10;3.77;;;10.90;99.90;;;;;;5016849;28;20197;-53
2022/10/07 07:35:40;;;;;;;9.80;3.60;;;11.00;1.00;;;;;;5022448;28;20209;-53
2022/10/07 07:38:07;;;;;;;11.43;3.70;;;11.00;1.00;;;;;;5030900;28;20577;-53
2022/10/07 07:40:38;;;;;;;10.27;4.00;;;11.00;1.00;;;;;;5022365;28;20231;-53
2022/10/07 07:43:06;;;;;;;10.33;3.37;;;11.20;1.00;;;;;;5028135;28;20710;-53
2022/10/07 07:45:36;;;;;;;11.23;3.57;;;11.60;24.20;;;;;;5011757;28;20235;-53
2022/10/07 07:48:03;;;;;;;8.07;3.70;;;11.70;1.00;;;;;;5024935;28;20290;-54
2022/10/07 07:50:30;;;;;;;6.97;2.87;;;12.00;1.00;;;;;;5013883;28;20641;-53
2022/10/07 07:52:59;;;;;;;10.43;3.80;;;12.20;99.90;;;;;;5018504;28;20214;-53
2022/10/07 07:55:25;;;;;;;11.70;3.40;;;12.10;1.00;;;;;;5019289;28;20212;-53
2022/10/07 07:57:52;;;;;;;11.53;3.20;;;12.20;1.00;;;;;;5010271;28;20687;-53
2022/10/07 08:00:19;;;;;;;11.03;3.33;;;12.50;1.00;;;;;;5012928;28;20675;-53
2022/10/07 08:02:46;;;;;;;11.47;3.47;;;12.80;1.00;;;;;;5020281;28;20257;-53
2022/10/07 08:05:13;;;;;;;8.60;3.33;;;13.20;1.00;;;;;;5015301;28;20204;-53
2022/10/07 08:07:40;;;;;;;7.73;2.77;;;13.50;1.00;;;;;;5017076;28;20212;-53
2022/10/07 08:10:07;;;;;;;9.90;3.17;;;13.80;99.90;;;;;;5018730;28;20215;-53
2022/10/07 08:12:34;;;;;;;8.97;3.30;;;13.70;99.90;;;;;;5017356;28;20754;-53
2022/10/07 08:15:01;;;;;;;5.87;2.90;;;13.70;99.90;;;;;;5014856;28;20203;-53
2022/10/07 08:17:28;;;;;;;12.27;2.93;;;13.40;99.90;;;;;;5016989;28;20230;-53
2022/10/07 08:19:55;;;;;;;6.77;3.20;;;13.40;99.90;;;;;;5018476;28;20196;-53
2022/10/07 08:22:21;;;;;;;10.70;2.63;;;13.40;99.90;;;;;;5023406;28;20208;-52
2022/10/07 08:24:48;;;;;;;9.13;3.07;;;13.60;99.90;;;;;;5019345;28;20201;-53
2022/10/07 08:27:15;;;;;;;12.93;3.57;;;13.80;99.90;;;;;;5018182;28;20229;-52
2022/10/07 08:29:42;;;;;;;7.17;2.73;;;14.00;99.90;;;;;;5015986;28;20228;-52
2022/10/07 08:32:09;;;;;;;12.00;3.37;;;13.80;1.00;;;;;;5016496;28;20772;-53
2022/10/07 08:34:36;;;;;;;13.67;3.20;;;13.70;1.00;;;;;;5016804;28;20619;-53
2022/10/07 08:37:03;;;;;;;7.90;2.50;;;13.60;99.90;;;;;;5020352;28;20196;-53
2022/10/07 08:39:30;;;;;;;9.40;2.53;;;13.70;99.90;;;;;;5025139;28;20302;-53
2022/10/07 08:42:31;;;;;;;8.60;2.83;;;13.60;99.90;;;;;;5016791;28;20192;-53
2022/10/07 08:44:58;;;;;;;9.63;3.53;;;13.70;1.00;;;;;;5019334;28;20253;-54
2022/10/07 08:47:40;;;;;;;8.73;2.97;;;13.70;99.90;;;;;;5017018;28;20689;-54
2022/10/07 08:50:13;;;;;;;6.37;2.33;;;13.80;1.00;;;;;;5012211;28;20284;-52
2022/10/07 08:53:07;;;;;;;7.33;2.40;;;13.90;99.90;;;;;;5015092;28;20198;-53
2022/10/07 08:55:44;;;;;;;6.53;2.40;;;13.90;99.90;;;;;;5014202;28;20198;-53
2022/10/07 08:58:56;;;;;;;10.57;2.40;;;14.20;99.90;;;;;;5012214;28;20234;-53
2022/10/07 09:01:35;;;;;;;8.20;2.10;;;14.30;38.70;;;;;;5014388;28;20705;-53
2022/10/07 09:04:14;;;;;;;12.90;2.60;;;14.10;1.00;;;;;;5013012;28;20942;-53
2022/10/07 09:07:03;;;;;;;9.37;2.87;;;14.20;99.90;;;;;;5014307;28;20660;-52
2022/10/07 09:09:58;;;;;;;13.47;3.10;;;14.30;99.90;;;;;;5016759;28;20634;-53
2022/10/07 09:12:48;;;;;;;11.23;2.17;;;14.40;99.90;;;;;;5019300;28;20220;-53
2022/10/07 09:15:40;;;;;;;10.10;2.00;;;14.50;99.90;;;;;;5012974;28;20201;-53
2022/10/07 09:18:15;;;;;;;10.00;2.13;;;14.50;1.00;;;;;;5028801;28;20235;-53
2022/10/07 09:20:50;;;;;;;5.70;2.23;;;14.50;1.00;;;;;;5017934;28;20601;-54
2022/10/07 09:23:19;;;;;;;8.47;2.30;;;14.60;1.00;;;;;;5013578;28;20671;-53
2022/10/07 09:25:46;;;;;;;7.90;2.27;;;14.70;1.00;;;;;;5016066;28;20717;-53
2022/10/07 09:28:16;;;;;;;8.63;2.00;;;14.60;1.00;;;;;;5017468;28;20213;-52
2022/10/07 09:30:43;;;;;;;6.27;1.80;;;14.60;1.00;;;;;;5017717;28;20644;-52
2022/10/07 09:33:17;;;;;;;7.33;2.00;;;14.50;1.00;;;;;;5011382;28;20641;-53
2022/10/07 09:36:02;;;;;;;8.10;2.30;;;14.60;1.00;;;;;;5012410;28;20201;-53
2022/10/07 09:38:35;;;;;;;8.13;1.97;;;14.70;1.00;;;;;;5012329;28;20256;-54
2022/10/07 09:41:16;;;;;;;7.23;1.93;;;14.90;1.00;;;;;;5012641;28;20584;-54
2022/10/07 09:43:49;;;;;;;8.77;2.03;;;15.10;1.00;;;;;;5011945;28;20711;-53
2022/10/07 09:46:47;;;;;;;11.83;1.87;;;15.00;1.00;;;;;;5013440;28;20240;-53
2022/10/07 09:49:26;;;;;;;8.77;2.00;;;15.10;99.90;;;;;;5017839;28;20201;-53
2022/10/07 09:52:00;;;;;;;7.60;1.73;;;15.30;1.00;;;;;;5012680;28;20582;-53
2022/10/07 09:54:29;;;;;;;13.30;2.63;;;15.50;99.90;;;;;;5024728;28;20649;-53
2022/10/07 09:56:59;;;;;;;7.83;1.73;;;15.60;99.90;;;;;;5015331;28;20206;-52
2022/10/07 09:59:31;;;;;;;6.80;2.37;;;15.70;99.90;;;;;;5021072;28;20291;-52
2022/10/07 10:02:13;;;;;;;9.00;2.03;;;15.70;99.90;;;;;;5018021;28;20308;-51
2022/10/07 10:04:51;;;;;;;7.70;1.97;;;15.80;1.00;;;;;;5015787;28;20194;-53
2022/10/07 10:07:31;;;;;;;11.30;3.07;;;15.90;1.00;;;;;;5013101;28;20443;-52
2022/10/07 10:10:20;;;;;;;10.97;2.03;;;15.90;1.00;;;;;;5017511;28;20202;-53
2022/10/07 10:12:50;;;;;;;7.50;2.03;;;16.10;1.00;;;;;;5015100;28;20851;-53
2022/10/07 10:15:29;;;;;;;10.40;1.60;;;16.10;1.00;;;;;;5016037;28;20195;-53
2022/10/07 10:17:56;;;;;;;9.73;2.00;;;16.20;1.00;;;;;;5017341;28;20698;-58
2022/10/07 10:20:25;;;;;;;11.73;1.90;;;16.20;1.00;;;;;;5018218;28;20228;-53
2022/10/07 10:22:53;;;;;;;6.73;1.80;;;16.30;1.00;;;;;;5022552;28;20208;-53
2022/10/07 10:28:52;;;;;;;7.27;1.87;;;16.30;1.00;;;;;;5018371;28;20297;-52
2022/10/07 10:31:41;;;;;;;8.67;1.43;;;16.50;1.00;;;;;;5020002;28;20667;-51
2022/10/07 10:34:31;;;;;;;13.27;1.97;;;16.60;1.00;;;;;;5018944;28;20605;-52
2022/10/07 10:37:16;;;;;;;3.90;1.20;;;16.60;1.00;;;;;;5021940;28;20223;-53
2022/10/07 10:40:06;;;;;;;7.40;1.80;;;16.60;1.00;;;;;;5017376;28;20207;-52
2022/10/07 10:42:53;;;;;;;3.67;1.40;;;16.60;1.00;;;;;;5022771;28;20251;-52
2022/10/07 10:45:48;;;;;;;7.07;1.70;;;16.70;1.00;;;;;;5023760;28;20255;-51
2022/10/07 10:48:36;;;;;;;6.63;1.60;;;16.80;1.00;;;;;;5019709;28;20601;-52
2022/10/07 10:51:42;;;;;;;11.20;2.80;;;16.80;1.00;;;;;;5021252;28;20212;-53
2022/10/07 10:54:27;;;;;;;7.00;1.90;;;16.90;1.00;;;;;;5026157;28;20658;-53
2022/10/07 10:57:13;;;;;;;6.73;1.30;;;17.00;1.00;;;;;;5019320;28;20304;-51
2022/10/07 10:59:41;;;;;;;8.67;2.00;;;17.10;1.00;;;;;;5021964;28;20219;-53
2022/10/07 11:02:37;;;;;;;8.53;1.53;;;17.20;1.00;;;;;;5032868;28;20541;-53
2022/10/07 11:05:21;;;;;;;4.83;1.33;;;17.30;99.90;;;;;;5013466;28;20833;-53
2022/10/07 11:08:02;;;;;;;5.80;1.23;;;17.20;99.90;;;;;;5023586;28;20228;-52
2022/10/07 11:10:35;;;;;;;5.83;1.73;;;17.20;99.90;;;;;;5032937;28;20234;-53
2022/10/07 11:13:42;;;;;;;8.20;1.80;;;17.50;1.00;;;;;;5033921;28;20207;-52
2022/10/07 11:16:26;;;;;;;6.70;3.17;;;17.50;99.90;;;;;;5015420;28;20226;-53
2022/10/07 11:19:00;;;;;;;5.40;1.57;;;17.50;99.90;;;;;;5024571;28;20221;-52
2022/10/07 11:21:31;;;;;;;7.47;1.60;;;17.70;99.90;;;;;;5016677;28;20212;-53
2022/10/07 11:24:12;;;;;;;4.77;1.33;;;17.70;99.90;;;;;;5027081;28;20205;-52
2022/10/07 11:26:42;;;;;;;12.07;1.53;;;17.70;99.90;;;;;;5027206;28;20203;-53
2022/10/07 11:29:37;;;;;;;10.03;1.93;;;17.80;99.90;;;;;;5017593;28;20861;-54
2022/10/07 11:32:15;;;;;;;5.53;1.53;;;17.80;99.90;;;;;;5027671;28;20230;-53
2022/10/07 11:35:04;;;;;;;4.37;1.50;;;18.00;99.90;;;;;;5018899;28;20204;-52
2022/10/07 11:37:41;;;;;;;8.00;1.60;;;18.10;99.90;;;;;;5026268;28;20212;-52
2022/10/07 11:40:08;;;;;;;7.77;1.37;;;18.40;99.90;;;;;;5022318;28;20571;-55
2022/10/07 11:42:46;;;;;;;7.27;1.50;;;18.40;99.90;;;;;;5023964;28;20201;-53
2022/10/07 11:45:39;;;;;;;4.17;1.10;;;18.50;99.90;;;;;;5014029;28;20237;-53
2022/10/07 11:48:17;;;;;;;6.87;1.30;;;18.60;34.10;;;;;;5022219;28;20208;-53
2022/10/07 11:50:53;;;;;;;6.60;1.30;;;19.00;21.20;;;;;;5013705;28;20307;-53
2022/10/07 11:53:24;;;;;;;5.73;1.30;;;19.10;1.00;;;;;;5027545;28;20196;-53
2022/10/07 11:56:00;;;;;;;6.93;1.40;;;19.20;1.00;;;;;;5018723;28;20206;-53
2022/10/07 11:58:34;;;;;;;5.70;1.30;;;19.40;1.00;;;;;;5017730;28;20251;-54
2022/10/07 12:01:29;;;;;;;6.60;1.67;;;19.30;1.00;;;;;;5022641;28;20221;-53
2022/10/07 12:04:19;;;;;;;5.27;1.60;;;19.50;1.00;;;;;;5008383;28;20380;-54
2022/10/07 12:07:23;;;;;;;4.57;1.53;;;19.80;1.00;;;;;;5022801;28;20201;-54
2022/10/07 12:10:06;;;;;;;5.57;1.33;;;20.10;1.00;;;;;;5046042;28;20563;-53
2022/10/07 12:12:45;;;;;;;6.00;1.60;;;20.50;1.00;;;;;;5026670;28;20207;-53
2022/10/07 12:15:34;;;;;;;6.43;1.20;;;20.30;1.00;;;;;;5025930;28;20200;-54
2022/10/07 12:18:04;;;;;;;7.30;1.37;;;20.40;1.00;;;;;;5023286;28;20236;-53
2022/10/07 12:20:35;;;;;;;4.57;1.30;;;20.20;1.00;;;;;;5039193;28;20307;-53
2022/10/07 12:23:24;;;;;;;5.77;1.20;;;20.00;1.00;;;;;;5012977;28;20209;-52
2022/10/07 12:26:30;;;;;;;6.10;1.37;;;20.20;1.00;;;;;;5026572;28;20208;-53
2022/10/07 12:28:57;;;;;;;9.57;1.43;;;20.20;1.00;;;;;;5008065;28;20240;-53
2022/10/07 12:31:24;;;;;;;7.53;1.53;;;20.50;1.00;;;;;;5030895;28;20679;-53
2022/10/07 12:34:34;;;;;;;8.20;1.43;;;20.40;1.00;;;;;;5016292;28;20204;-53
2022/10/07 12:37:43;;;;;;;4.53;1.17;;;20.20;1.00;;;;;;5029225;28;20702;-54
2022/10/07 12:40:19;;;;;;;5.07;1.27;;;20.60;1.00;;;;;;5011714;28;20735;-52
2022/10/07 12:43:33;;;;;;;6.20;1.70;;;20.50;1.00;;;;;;5014162;28;20196;-52
2022/10/07 12:46:09;;;;;;;5.53;1.27;;;20.10;1.00;;;;;;5009339;28;20712;-53
2022/10/07 12:48:42;;;;;;;5.23;1.13;;;20.10;1.00;;;;;;5011768;28;20228;-52
2022/10/07 12:51:20;;;;;;;7.67;1.43;;;20.00;1.00;;;;;;5017087;28;20712;-52
2022/10/07 12:53:49;;;;;;;5.77;1.63;;;20.30;1.00;;;;;;5022412;28;20196;-55
2022/10/07 12:56:20;;;;;;;4.70;1.13;;;20.10;1.00;;;;;;5020708;28;20200;-53
2022/10/07 13:01:58;;;;;;;7.83;1.43;;;20.20;1.00;;;;;;5014633;28;20749;-53
2022/10/07 13:04:41;;;;;;;8.00;1.30;;;19.80;1.00;;;;;;5016628;28;20205;-53
2022/10/07 13:07:49;;;;;;;8.33;1.13;;;19.50;1.00;;;;;;5016292;28;20196;-53
2022/10/07 13:10:41;;;;;;;6.33;1.50;;;19.70;1.00;;;;;;5032293;28;20617;-53
2022/10/07 13:13:28;;;;;;;6.87;1.20;;;19.80;1.00;;;;;;5008062;28;20252;-52
2022/10/07 13:16:00;;;;;;;5.73;1.27;;;19.60;1.00;;;;;;5013040;28;20604;-52
2022/10/07 13:18:58;;;;;;;5.83;1.57;;;19.80;1.00;;;;;;5016815;28;20585;-52
2022/10/07 13:21:38;;;;;;;4.43;1.10;;;20.00;1.00;;;;;;5015778;28;20664;-51
2022/10/07 13:24:13;;;;;;;5.67;1.20;;;20.00;1.00;;;;;;5016382;28;20201;-52
2022/10/07 13:26:43;;;;;;;9.27;1.60;;;19.50;1.00;;;;;;5020442;28;20193;-52
2022/10/07 13:29:23;;;;;;;3.30;1.20;;;19.40;1.00;;;;;;5021166;28;20284;-51
2022/10/07 13:32:10;;;;;;;7.40;1.20;;;19.40;1.00;;;;;;5020725;28;20295;-52
2022/10/07 13:34:37;;;;;;;5.67;1.37;;;19.70;1.00;;;;;;5022033;28;20663;-52
2022/10/07 13:37:25;;;;;;;3.03;1.20;;;19.50;1.00;;;;;;5016193;28;20196;-52